x

Potomac, Md (44042) Weather Station

10:50pm - Sat 10th Dec 2016 All times are EST. -5 hours from GMT.

  • Wind
    9mph, 11mph gusts
  • Air Temp 32°f
  • Sea Pressure 1033.3mb
  • Potomac, Md
  • Potomac, Md

More Historic Weather Station data

Upgrade to MSW Pro to gain access to the past 30 days of data for over 8000 Wavebouys and Weather Stations around the globe.

Join Pro

Comparision Forecast

View Surf forecast
   
Sat 12/10 10:50pm  -   -  9 11 mph 1033.3mb - 32f
10:40pm  -   -  11 16 mph 1033.4mb - 33f
10:30pm  -   -  11 13 mph 1033.2mb - 33f
10:20pm  -   -  11 13 mph 1033.2mb - 33f
10:10pm  -   -  11 16 mph 1033mb - 33f
10:00pm 0.7ft  -  11 13 mph 1032.9mb 47f 33f
9:50pm  -   -  11 16 mph 1032.8mb - 33f
9:40pm  -   -  11 16 mph 1032.7mb - 33f
9:30pm  -   -  11 16 mph 1032.7mb - 33f
9:20pm  -   -  11 16 mph 1032.6mb - 33f
9:10pm  -   -  11 13 mph 1032.7mb - 33f
9:00pm 0.7ft  -  11 13 mph 1032.8mb 47f 33f
8:50pm  -   -  11 13 mph 1032.8mb - 33f
8:40pm  -   -  11 13 mph 1032.7mb - 34f
8:30pm  -   -  11 13 mph 1032.6mb - 34f
8:20pm  -   -  11 13 mph 1032.7mb - 34f
8:10pm  -   -  11 16 mph 1032.8mb - 34f
8:00pm 1ft 2s 11 16 mph 1032.8mb 46f 34f
7:50pm  -   -  13 18 mph 1032.9mb - 34f
7:40pm  -   -  11 16 mph 1032.8mb - 34f
7:30pm  -   -  11 13 mph 1032.6mb - 35f
7:20pm  -   -  11 13 mph 1032.5mb - 35f
7:10pm  -   -  11 13 mph 1032.3mb - 35f
7:00pm 1ft 2s 13 16 mph 1032.2mb 47f 35f
6:50pm  -   -  13 16 mph 1032.2mb - 35f
6:40pm  -   -  11 13 mph 1032.1mb - 36f
6:30pm  -   -  11 13 mph 1032.1mb - 36f
6:20pm  -   -  11 13 mph 1032mb - 36f
6:10pm  -   -  11 16 mph 1032.1mb - 37f
6:00pm 1ft 2s 13 16 mph 1032mb 47f 37f
5:50pm  -   -  11 13 mph 1031.9mb - 37f
5:40pm  -   -  11 13 mph 1031.7mb - 37f
5:30pm  -   -  11 18 mph 1031.5mb - 38f
5:20pm  -   -  13 20 mph 1031.5mb - 38f
5:10pm  -   -  16 20 mph 1031.2mb - 38f
5:00pm 1.3ft 2s 16 20 mph 1031mb 48f 38f
4:50pm  -   -  16 20 mph 1031mb - 38f
4:40pm  -   -  16 20 mph 1030.8mb - 38f
4:30pm  -   -  16 20 mph 1030.5mb - 38f
4:20pm  -   -  16 20 mph 1030.5mb - 38f
4:10pm  -   -  16 20 mph 1030.6mb - 38f
4:00pm 1.3ft 2s 16 18 mph 1030.7mb - 38f
3:50pm  -   -  16 20 mph 1030.7mb - 38f
3:40pm  -   -  16 20 mph 1030.3mb - 38f
3:30pm  -   -  13 18 mph 1030.2mb - 38f
3:20pm  -   -  16 20 mph 1030.3mb - 37f
3:10pm  -   -  13 18 mph 1030.1mb - 37f
3:00pm 1.3ft 2s 13 18 mph 1030mb 48f 37f
2:50pm  -   -  13 18 mph 1029.9mb - 37f
2:40pm  -   -  16 20 mph 1029.9mb - 37f
2:30pm  -   -  13 20 mph 1029.9mb - 37f
2:20pm  -   -  13 18 mph 1030mb - 37f
2:10pm  -   -  16 20 mph 1030mb - 37f
2:00pm 1.6ft 3s 16 20 mph 1030mb 47f 37f
1:50pm  -   -  16 20 mph 1030.1mb - 37f
1:40pm  -   -  13 20 mph 1030.1mb - 36f
1:30pm  -   -  13 20 mph 1030.2mb - 36f
1:20pm  -   -  13 18 mph 1030.2mb - 36f
1:10pm  -   -  13 18 mph 1030.4mb - 36f
1:00pm 1.3ft 3s 13 18 mph 1030.6mb 48f 36f
12:50pm  -   -  13 18 mph 1030.7mb - 36f
12:40pm  -   -  13 18 mph 1030.8mb - 35f
12:30pm  -   -  13 18 mph 1031mb - 36f
12:20pm  -   -  13 18 mph 1031.1mb - 35f
12:10pm  -   -  13 16 mph 1031.2mb - 35f
12:00pm 1.3ft 3s 13 18 mph 1031.3mb 48f 35f
11:50am  -   -  13 18 mph 1031.4mb - 35f
11:40am  -   -  13 18 mph 1031.5mb - 35f
11:30am  -   -  13 16 mph 1031.7mb - 35f
11:20am  -   -  11 16 mph 1031.9mb - 35f
11:10am  -   -  9 13 mph 1032.1mb - 35f
11:00am 1.3ft 3s 11 13 mph 1032.3mb 48f 35f
10:50am  -   -  9 13 mph 1032.4mb - 35f
10:40am  -   -  9 13 mph 1032.6mb - 35f
10:30am  -   -  9 13 mph 1032.7mb - 34f
10:20am  -   -  11 13 mph 1032.7mb - 34f
10:10am  -   -  9 13 mph 1032.7mb - 34f
10:00am 1.3ft 3s 11 13 mph 1032.8mb 48f 34f
9:50am  -   -  13 18 mph 1032.8mb - 34f
9:40am  -   -  13 18 mph 1032.8mb - 34f
9:30am  -   -  13 20 mph 1032.8mb - 34f
9:20am  -   -  13 18 mph 1032.6mb - 34f
9:10am  -   -  16 20 mph 1032.7mb - 34f
9:00am 2ft 3s 16 20 mph 1032.7mb 47f 34f
8:50am  -   -  18 22 mph 1032.7mb - 34f
8:40am  -   -  18 22 mph 1032.8mb - 34f
8:30am  -   -  18 22 mph 1032.8mb - 34f
8:20am  -   -  18 25 mph 1032.7mb - 34f
8:10am  -   -  18 25 mph 1032.5mb - 34f
8:00am 2ft 3s 20 25 mph 1032.6mb 47f 35f
7:50am  -   -  20 25 mph 1032.6mb - 35f
7:40am  -   -  18 27 mph 1032.5mb - 35f
7:30am  -   -  18 22 mph 1032.4mb - 35f
7:20am  -   -  18 22 mph 1032.3mb - 35f
7:10am  -   -  20 25 mph 1032.4mb - 34f
7:00am 1.6ft 3s 18 25 mph 1032.3mb 48f 35f
6:50am  -   -  18 22 mph 1032.2mb - 34f
6:40am  -   -  18 25 mph 1032mb - 34f
6:30am  -   -  16 25 mph 1031.8mb - 34f
6:20am  -   -  16 22 mph 1031.7mb - 34f
6:10am  -   -  16 22 mph 1031.5mb - 34f
6:00am 1.6ft 3s 13 20 mph 1031.4mb 48f 34f
5:50am  -   -  13 20 mph 1031.4mb - 34f
5:40am  -   -  13 20 mph 1031.3mb - 34f
5:30am  -   -  13 18 mph 1031.3mb - 34f
5:20am  -   -  13 18 mph 1031.2mb - 34f
5:10am  -   -  16 22 mph 1031.2mb - 34f
5:00am 2ft 3s 16 20 mph 1031mb 48f 34f
4:50am  -   -  16 20 mph 1031mb - 34f
4:40am  -   -  16 22 mph 1031mb - 34f
4:30am  -   -  16 22 mph 1031mb - 34f
4:20am  -   -  16 22 mph 1030.9mb - 35f
4:10am  -   -  20 29 mph 1031mb - 35f
4:00am 2.5ft 3s 22 29 mph 1031.1mb 48f 35f
3:50am  -   -  22 27 mph 1031mb - 35f
3:40am  -   -  20 27 mph 1030.9mb - 35f
3:30am  -   -  22 29 mph 1031mb - 35f
3:20am  -   -  22 29 mph 1031mb - 35f
3:10am  -   -  22 29 mph 1031mb - 35f
3:00am 2.5ft 3s 20 27 mph 1030.9mb 48f 36f
2:50am  -   -  22 29 mph 1030.9mb - 35f
2:40am  -   -  22 29 mph 1030.8mb - 35f
2:30am  -   -  22 29 mph 1030.7mb - 35f
2:20am  -   -  22 27 mph 1030.6mb - 35f
2:10am  -   -  22 29 mph 1030.5mb - 35f
2:00am 2.5ft 3s 22 29 mph 1030.6mb 48f 35f
1:50am  -   -  25 29 mph 1030.4mb - 35f
1:40am  -   -  22 29 mph 1030.2mb - 35f
1:30am  -   -  22 27 mph 1030mb - 35f
1:20am  -   -  22 29 mph 1029.9mb - 35f
1:10am  -   -  20 29 mph 1029.8mb - 35f
1:00am 2.5ft 3s 20 27 mph 1030mb 48f 35f
12:50am  -   -  22 29 mph 1029.8mb - 35f
12:40am  -   -  25 29 mph 1029.9mb - 35f
12:30am  -   -  22 29 mph 1029.9mb - 36f
12:20am  -   -  22 29 mph 1030.1mb - 36f
12:10am  -   -  22 27 mph 1030.1mb - 35f
12:00am 2.5ft 3s 22 29 mph 1030.2mb 48f 36f
Fri 12/09 11:50pm  -   -  22 29 mph 1030.2mb - 36f
11:40pm  -   -  22 29 mph 1030.2mb - 36f
11:30pm  -   -  22 27 mph 1030.2mb - 36f
11:20pm  -   -  22 27 mph 1030.2mb - 36f
11:10pm  -   -  20 27 mph 1030.1mb - 36f
11:00pm 2.5ft 3s 20 34 mph 1030.1mb 48f 36f
10:50pm  -   -  22 27 mph 1030mb - 36f
10:40pm  -   -  20 27 mph 1029.9mb - 36f
10:30pm  -   -  20 27 mph 1029.8mb - 36f
10:20pm  -   -  22 29 mph 1029.7mb - 36f
10:10pm  -   -  22 27 mph 1029.5mb - 36f
10:00pm 2.5ft 3s 20 29 mph 1029.5mb 48f 36f
9:50pm  -   -  20 29 mph 1029.4mb - 36f
9:40pm  -   -  22 27 mph 1029.3mb - 36f
9:30pm  -   -  22 29 mph 1029.2mb - 36f
9:20pm  -   -  25 31 mph 1029.2mb - 36f
9:10pm  -   -  25 31 mph 1029.2mb - 36f
9:00pm 2.5ft 3s 22 29 mph 1029.2mb 48f 36f
8:50pm  -   -  25 29 mph 1029.1mb - 36f
8:40pm  -   -  22 29 mph 1028.8mb - 36f
8:30pm  -   -  25 29 mph 1028.6mb - 36f
8:20pm  -   -  25 31 mph 1028.5mb - 36f
8:10pm  -   -  27 34 mph 1028.6mb - 37f
8:00pm 3ft 3s 27 31 mph 1029.1mb 48f 37f
7:50pm  -   -  27 34 mph 1029.3mb - 37f
7:40pm  -   -  27 34 mph 1029.3mb - 37f
7:30pm  -   -  25 31 mph 1029.3mb - 37f
7:20pm  -   -  22 29 mph 1029mb - 37f
7:10pm  -   -  25 31 mph 1029mb - 38f
7:00pm 2.5ft 3s 25 31 mph 1028.8mb 49f 38f
6:50pm  -   -  25 29 mph 1028.8mb - 38f
6:40pm  -   -  22 29 mph 1028.8mb - 38f
6:30pm  -   -  22 27 mph 1028.7mb - 38f
6:20pm  -   -  22 27 mph 1028.7mb - 39f
6:10pm  -   -  22 27 mph 1028.3mb - 39f
6:00pm 2.5ft 3s 25 29 mph 1028.2mb 49f 39f
5:50pm  -   -  25 31 mph 1028mb - 39f
5:40pm  -   -  22 29 mph 1027.9mb - 39f
5:30pm  -   -  22 29 mph 1027.7mb - 40f
5:20pm  -   -  25 29 mph 1027.5mb - 40f
5:10pm  -   -  25 29 mph 1027.5mb - 40f
5:00pm 2.5ft 3s 22 29 mph 1027.3mb 49f 40f
4:50pm  -   -  22 27 mph 1027.3mb - 40f
4:40pm  -   -  25 29 mph 1027.2mb - 40f
4:30pm  -   -  22 27 mph 1027mb - 40f
4:20pm  -   -  22 29 mph 1026.9mb - 40f
4:10pm  -   -  25 29 mph 1026.8mb - 40f
4:00pm 3ft 3s 22 29 mph 1026.6mb 48f 40f
3:50pm  -   -  22 31 mph 1026.5mb - 40f
3:40pm  -   -  22 29 mph 1026.3mb - 40f
3:30pm  -   -  22 27 mph 1026.1mb - 40f
3:20pm  -   -  22 29 mph 1026mb - 40f
3:10pm  -   -  22 29 mph 1025.8mb - 40f
3:00pm 3ft 3s 22 29 mph 1025.8mb 48f 40f
2:50pm  -   -  22 29 mph 1025.8mb - 40f
2:40pm  -   -  25 31 mph 1025.7mb - 40f
2:30pm  -   -  25 31 mph 1025.7mb - 40f
2:20pm  -   -  25 31 mph 1025.5mb - 40f
2:10pm  -   -  25 31 mph 1025.4mb - 40f
2:00pm 3ft 3s 22 27 mph 1025.4mb 48f 40f
1:50pm  -   -  22 29 mph 1025.4mb - 39f
1:40pm  -   -  22 29 mph 1025.4mb - 39f
1:30pm  -   -  25 31 mph 1025.3mb - 39f
1:20pm  -   -  25 31 mph 1025.4mb - 39f
1:10pm  -   -  25 29 mph 1025.4mb - 39f
1:00pm 3ft 3s 25 31 mph 1025.4mb 49f 39f
12:50pm  -   -  25 29 mph 1025.3mb - 38f
12:40pm  -   -  25 31 mph 1025.5mb - 38f
12:30pm  -   -  22 29 mph 1025.6mb - 38f
12:20pm  -   -  22 29 mph 1025.5mb - 38f
12:10pm  -   -  22 29 mph 1025.6mb - 38f
12:00pm 2.5ft 3s 22 29 mph 1025.7mb 49f 37f
11:50am  -   -  22 29 mph 1025.8mb - 37f
11:40am  -   -  22 29 mph 1025.9mb - 37f
11:30am  -   -  22 27 mph 1026.1mb - 37f
11:20am  -   -  20 29 mph 1026.1mb - 37f
11:10am  -   -  20 27 mph 1026.3mb - 37f
11:00am 3ft 3s 20 27 mph 1026.4mb 49f 36f
10:50am  -   -  22 29 mph 1026.5mb - 36f
10:40am  -   -  22 27 mph 1026.6mb - 36f
10:30am  -   -  22 29 mph 1026.6mb - 36f
10:20am  -   -  22 27 mph 1026.5mb - 36f
10:10am  -   -  22 29 mph 1026.3mb - 36f
10:00am 3ft 3s 22 29 mph 1026.3mb 49f 36f
9:50am  -   -  22 27 mph 1026.2mb - 36f
9:40am  -   -  22 29 mph 1026mb - 36f
9:30am  -   -  22 29 mph 1026mb - 36f
9:20am  -   -  20 29 mph 1026.1mb - 35f
9:10am  -   -  25 29 mph 1026.1mb - 35f
9:00am 2.5ft 3s 25 29 mph 1025.9mb 49f 35f
8:50am  -   -  25 29 mph 1025.9mb - 35f
8:40am  -   -  18 25 mph 1025.6mb - 35f
8:30am  -   -  16 22 mph 1025.4mb - 34f
8:20am  -   -  16 20 mph 1025.3mb - 34f
8:10am  -   -  16 20 mph 1025.1mb - 34f
8:00am 2.5ft 3s 18 25 mph 1025mb 49f 34f
7:50am  -   -  20 27 mph 1025mb - 34f
7:40am  -   -  16 22 mph 1024.8mb - 34f
7:30am  -   -  18 25 mph 1024.8mb - 33f
7:20am  -   -  18 22 mph 1024.7mb - 33f
7:10am  -   -  18 25 mph 1024.7mb - 33f
7:00am 3ft 4s 18 27 mph 1024.6mb 49f 34f
6:50am  -   -  22 31 mph 1024.5mb - 34f
6:40am  -   -  25 34 mph 1024.5mb - 34f
6:30am  -   -  25 31 mph 1024.3mb - 34f
6:20am  -   -  27 34 mph 1024.2mb - 34f
6:10am  -   -  27 31 mph 1024mb - 34f
6:00am 3ft 3s 27 31 mph 1023.8mb 49f 34f
5:50am  -   -  25 31 mph 1023.8mb - 34f
5:40am  -   -  27 34 mph 1023.8mb - 34f
5:30am  -   -  27 34 mph 1023.6mb - 35f
5:20am  -   -  29 34 mph 1023.3mb - 35f
5:10am  -   -  27 31 mph 1023.1mb - 35f
5:00am 3ft 3s 27 34 mph 1023mb 49f 35f
4:50am  -   -  27 34 mph 1023.1mb - 35f
4:40am  -   -  27 34 mph 1023mb - 35f
4:30am  -   -  27 31 mph 1022.9mb - 35f
4:20am  -   -  27 34 mph 1022.8mb - 35f
4:10am  -   -  27 34 mph 1022.6mb - 36f
4:00am 2.5ft 3s  -  mph - 49f -
3:50am  -   -  27 31 mph 1022.6mb - 36f
3:40am  -   -  25 31 mph 1022.6mb - 36f
3:30am  -   -  25 31 mph 1022.9mb - 36f
3:20am  -   -  22 31 mph 1022.9mb - 35f
3:10am  -   -  22 29 mph 1022.9mb - 35f
3:00am 2ft 3s 20 27 mph 1022.8mb 50f 35f
2:50am  -   -  18 25 mph 1022.8mb - 35f
2:40am  -   -  18 25 mph 1022.8mb - 35f
2:30am  -   -  18 25 mph 1022.8mb - 35f
2:20am  -   -  18 22 mph 1022.7mb - 35f
2:10am  -   -  16 20 mph 1022.6mb - 35f
2:00am 2ft 3s 18 20 mph 1022.5mb 50f 35f
1:50am  -   -  16 22 mph 1022.4mb - 35f
1:40am  -   -  18 20 mph 1022.3mb - 36f
1:30am  -   -  18 25 mph 1022.1mb - 36f
1:20am  -   -  18 22 mph 1022mb - 36f
1:10am  -   -  18 22 mph 1021.9mb - 36f
1:00am 2ft 3s 18 22 mph 1021.7mb 50f 36f
12:50am  -   -  18 25 mph 1021.6mb - 36f
12:40am  -   -  18 25 mph 1021.6mb - 37f
12:30am  -   -  18 25 mph 1021.5mb - 37f
12:20am  -   -  16 25 mph 1021.4mb - 37f
12:10am  -   -  18 25 mph 1021.4mb - 38f
12:00am 2.5ft 3s 18 27 mph 1021.3mb 50f 38f
Thu 12/08 11:50pm  -   -  20 27 mph 1021.3mb - 38f
11:40pm  -   -  20 27 mph 1021.2mb - 38f
11:30pm  -   -  20 27 mph 1021.2mb - 38f
11:20pm  -   -  20 27 mph 1021.1mb - 39f
11:10pm  -   -  22 27 mph 1021.1mb - 39f
11:00pm 2.5ft 3s 18 25 mph 1020.9mb 50f 39f
10:50pm  -   -  16 20 mph 1020.6mb - 40f
10:40pm  -   -  20 25 mph 1020.5mb - 40f
10:30pm  -   -  20 27 mph 1020.4mb - 40f
10:20pm  -   -  18 25 mph 1020.2mb - 41f
10:10pm  -   -  18 25 mph 1020.1mb - 41f
10:00pm 2.5ft 3s 20 25 mph 1019.9mb 50f 42f
9:50pm  -   -  22 27 mph 1019.8mb - 42f
9:40pm  -   -  25 31 mph 1019.7mb - 42f
9:30pm  -   -  22 27 mph 1019.7mb - 43f
9:20pm  -   -  20 29 mph 1019.7mb - 43f
9:10pm  -   -  18 25 mph 1019.5mb - 43f
9:00pm 2ft 3s 18 22 mph 1019.3mb 50f 44f
8:50pm  -   -  22 27 mph 1019.3mb - 44f
8:40pm  -   -  22 27 mph 1019.2mb - 45f
8:30pm  -   -  20 27 mph 1019.1mb - 45f
8:20pm  -   -  18 22 mph 1018.9mb - 45f
8:10pm  -   -  18 20 mph 1018.8mb - 46f
8:00pm 2ft 3s 20 25 mph 1018.7mb 50f 46f
7:50pm  -   -  20 25 mph 1018.5mb - 46f
7:40pm  -   -  22 27 mph 1018.4mb - 46f
7:30pm  -   -  18 25 mph 1018.4mb - 47f
7:20pm  -   -  18 25 mph 1018.3mb - 47f
7:10pm  -   -  18 22 mph 1018.1mb - 47f
7:00pm 2ft 3s 16 20 mph 1017.8mb 50f 47f
6:50pm  -   -  18 25 mph 1017.9mb - 47f
6:40pm  -   -  18 22 mph 1017.8mb - 47f
6:30pm  -   -  18 22 mph 1017.6mb - 47f
6:20pm  -   -  16 20 mph 1017.4mb - 47f
6:10pm  -   -  16 20 mph 1017.3mb - 48f
6:00pm 2ft 3s 16 18 mph 1017.1mb 50f 48f
5:50pm  -   -  16 20 mph 1017.2mb - 48f
5:40pm  -   -  16 20 mph 1017.1mb - 48f
5:30pm  -   -  18 22 mph 1017mb - 48f
5:20pm  -   -  20 27 mph 1016.8mb - 48f
5:10pm  -   -  20 25 mph 1016.7mb - 48f
5:00pm 1.3ft 2s 22 27 mph 1016.7mb 50f 48f
4:50pm  -   -  22 29 mph 1016.8mb - 48f
4:40pm  -   -  18 25 mph 1016.6mb - 48f
4:30pm  -   -  16 22 mph 1016.3mb - 47f
4:20pm  -   -  9 11 mph 1016mb - 47f
4:10pm  -   -  7 9 mph 1015.7mb - 46f
4:00pm 0.3ft  -  9 11 mph 1015.8mb 50f 47f
3:50pm  -   -  7 11 mph 1015.6mb - 47f
3:40pm  -   -  7 9 mph 1015.7mb - 47f
3:30pm  -   -  7 9 mph 1015.6mb - 46f
3:20pm  -   -  4 7 mph 1015.4mb - 46f
3:10pm  -   -  4 7 mph 1015.4mb - 46f
3:00pm 0.3ft  -  4 7 mph 1015.2mb 50f 45f
2:50pm  -   -  4 7 mph 1015.1mb - 45f
2:40pm  -   -  4 7 mph 1015.2mb - 44f
2:30pm  -   -  4 7 mph 1015.1mb - 44f
2:20pm  -   -  7
mph
1015.1mb - 44f
2:10pm  -   -  4 7 mph 1015.2mb - 44f
2:00pm 0.3ft  -  4
mph
1015mb 50f 44f
1:50pm  -   -  2 4 mph 1015mb - 45f
1:40pm  -   -  2
mph
1015mb - 45f
1:30pm  -   -  2 4 mph 1015.1mb - 45f
1:20pm  -   -   -  4 mph 1015.2mb - 44f
1:10pm  -   -  2 4 mph 1015.3mb - 44f
1:00pm 0.3ft  -  2 4 mph 1015.3mb 50f 44f
12:50pm  -   -  4
mph
1015.3mb - 44f
12:40pm  -   -  4
mph
1015.4mb - 44f
12:30pm  -   -  4
mph
1015.4mb - 43f
12:20pm  -   -  4 7 mph 1015.3mb - 43f
12:10pm  -   -  4 7 mph 1015.7mb - 43f
12:00pm 0.3ft  -  7 9 mph 1015.9mb 50f 43f
11:50am  -   -  7 9 mph 1016mb - 43f
11:40am  -   -  7 11 mph 1016mb - 43f
11:30am  -   -  9 11 mph 1016mb - 43f
11:20am  -   -  9 11 mph 1016mb - 43f
11:10am  -   -  9 11 mph 1016.3mb - 43f
11:00am 0.3ft  -  7 9 mph 1016.8mb 50f 43f
10:50am  -   -  7 9 mph 1017mb - 43f
10:40am  -   -  7 9 mph 1017.1mb - 44f
10:30am  -   -   -  2 mph 1017.1mb - 44f
10:20am  -   -  2 4 mph 1017.2mb - 45f
10:10am  -   -  2 4 mph 1017.2mb - 45f
10:00am 0.3ft  -  2
mph
1017.3mb 50f 46f
9:50am  -   -  2 4 mph 1017.4mb - 45f
9:40am  -   -  4 7 mph 1017.5mb - 45f
9:30am  -   -  7 9 mph 1017.4mb - 45f
9:20am  -   -  7 9 mph 1017.1mb - 45f
9:10am  -   -  7 9 mph 1016.6mb - 45f
9:00am 0.3ft  -  7 9 mph 1016.5mb 49f 45f
8:50am  -   -  7
mph
1016.5mb - 45f
8:40am  -   -  7
mph
1016.3mb - 45f
8:30am  -   -  4 7 mph 1016.2mb - 45f
8:20am  -   -  4 7 mph 1016.3mb - 46f
8:10am  -   -  4 7 mph 1016.3mb - 46f
8:00am 0.3ft  -  4 7 mph 1016.3mb 49f 46f
7:50am  -   -  4 7 mph 1016.3mb - 46f
7:40am  -   -  4
mph
1016.3mb - 46f
7:30am  -   -  4 7 mph 1016.2mb - 46f
7:20am  -   -  4
mph
1016.2mb - 46f
7:10am  -   -  4 7 mph 1016.2mb - 46f
7:00am 0.3ft  -  4
mph
1016.3mb 49f 46f
6:50am  -   -  4 7 mph 1016.3mb - 46f
6:40am  -   -  4 7 mph 1016.2mb - 46f
6:30am  -   -  4
mph
1016.2mb - 46f
6:20am  -   -  4
mph
1016.2mb - 46f
6:10am  -   -  4
mph
1016.1mb - 46f
6:00am  -   -  2 4 mph 1015.9mb 50f 46f
5:50am  -   -  2 4 mph 1016mb - 46f
5:40am  -   -  2 4 mph 1016mb - 45f
5:30am  -   -  2 4 mph 1015.9mb - 45f
5:20am  -   -  4
mph
1016.1mb - 46f
5:10am  -   -  4
mph
1016.2mb - 45f
5:00am  -   -  4
mph
1016.3mb 50f 46f
4:50am  -   -  4
mph
1016.3mb - 45f
4:40am  -   -  4 7 mph 1016.3mb - 46f
4:30am  -   -  7 9 mph 1016.5mb - 46f
4:20am  -   -  7 9 mph 1016.6mb - 46f
4:10am  -   -  9
mph
1016.7mb - 46f
4:00am  -   -  9 11 mph 1016.7mb 50f 46f
3:50am  -   -  9 11 mph 1016.6mb - 46f
3:40am  -   -  9
mph
1016.6mb - 46f
3:30am  -   -  7 9 mph 1016.3mb - 45f
3:20am  -   -  7 9 mph 1016.4mb - 46f
3:10am  -   -  7 9 mph 1016.7mb - 46f
3:00am  -   -  9 11 mph 1016.9mb 50f 45f
2:50am  -   -  9 11 mph 1016.8mb - 46f
2:40am  -   -  9 11 mph 1016.9mb - 46f
2:30am  -   -  9 11 mph 1017mb - 46f
2:20am  -   -  9 11 mph 1017.1mb - 46f
2:10am  -   -  9 11 mph 1017.1mb - 46f
2:00am 0.3ft  -  9
mph
1017mb 50f 46f
1:50am  -   -  7 9 mph 1016.8mb - 46f
1:40am  -   -  7 9 mph 1016.8mb - 46f
1:30am  -   -  7 9 mph 1016.9mb - 46f
1:20am  -   -  7
mph
1016.7mb - 46f
1:10am  -   -  7
mph
1016.8mb - 46f
1:00am 0.3ft  -  7 9 mph 1016.8mb 50f 46f
12:50am  -   -  7
mph
1016.9mb - 46f
12:40am  -   -  7
mph
1017mb - 46f
12:30am  -   -  4
mph
1017.1mb - 46f
12:20am  -   -  4
mph
1017.2mb - 46f
12:10am  -   -  4 7 mph 1017.3mb - 45f
12:00am  -   -  7
mph
1017.4mb 50f 45f
Wed 12/07 11:50pm  -   -  7 9 mph 1017.5mb - 46f
11:40pm  -   -  4 7 mph 1017.7mb - 46f
11:30pm  -   -  7 9 mph 1017.9mb - 47f
11:20pm  -   -  4 7 mph 1017.7mb - 49f
11:10pm  -   -  4
mph
1017.6mb - 48f
11:00pm  -   -  2 4 mph 1017.7mb 50f 48f
10:50pm  -   -   -  2 mph 1017.8mb - 47f
10:40pm  -   -   -  mph 1017.9mb - 48f
10:30pm  -   -   -  2 mph 1017.8mb - 48f
10:20pm  -   -   -  mph 1017.7mb - 47f
10:10pm  -   -   -  mph 1017.6mb - 47f
10:00pm 0.3ft  -   -  mph 1017.5mb 50f 47f
9:50pm  -   -   -  mph 1017.5mb - 47f
9:40pm  -   -   -  mph 1017.7mb - 47f
9:30pm  -   -   -  mph 1017.7mb - 47f
9:20pm  -   -   -  2 mph 1017.7mb - 47f
9:10pm  -   -  2
mph
1017.7mb - 47f
9:00pm 0.3ft  -  2
mph
1017.7mb 50f 47f
8:50pm  -   -  2
mph
1017.7mb - 47f
8:40pm  -   -  2
mph
1017.7mb - 47f
8:30pm  -   -  2 4 mph 1017.7mb - 47f
8:20pm  -   -  4
mph
1017.7mb - 47f
8:10pm  -   -  4 7 mph 1017.8mb - 47f
8:00pm 0.3ft  -  4 7 mph 1017.9mb 50f 47f
7:50pm  -   -  4 7 mph 1017.9mb - 47f
7:40pm  -   -  4 7 mph 1017.9mb - 47f
7:30pm  -   -  7
mph
1017.9mb - 47f
7:20pm  -   -  7 9 mph 1017.9mb - 48f
7:10pm  -   -  7 9 mph 1018mb - 47f
7:00pm 0.7ft  -  7 9 mph 1017.9mb 50f 48f
6:50pm  -   -  9 11 mph 1017.9mb - 48f
6:40pm  -   -  9 11 mph 1017.9mb - 48f
6:30pm  -   -  7 9 mph 1017.9mb - 48f
6:20pm  -   -  7 9 mph 1017.8mb - 48f
6:10pm  -   -  7
mph
1018mb - 48f
6:00pm 0.7ft  -  4 7 mph 1018mb 50f 48f
5:50pm  -   -  4
mph
1017.9mb - 48f
5:40pm  -   -  4
mph
1017.6mb - 48f
5:30pm  -   -  4
mph
1017.5mb - 48f
5:20pm  -   -  4
mph
1017.4mb - 49f
5:10pm  -   -  4 9 mph 1017.4mb - 49f
5:00pm 1ft 3s 4 7 mph 1017.3mb 50f 49f
4:50pm  -   -  2 4 mph 1017.3mb - 49f
4:40pm  -   -  9 13 mph 1017.2mb - 50f
4:30pm  -   -  11 13 mph 1017.1mb - 50f
4:20pm  -   -  13 16 mph 1016.9mb - 50f
4:10pm  -   -  13
mph
1016.8mb - 50f
4:00pm 1.3ft 2s 13 16 mph 1016.7mb 50f 50f
3:50pm  -   -  13 16 mph 1016.5mb - 50f
3:40pm  -   -  13 16 mph 1016.6mb - 50f
3:30pm  -   -  13 16 mph 1016.4mb - 50f
3:20pm  -   -  13 16 mph 1016.3mb - 50f
3:10pm  -   -  13 16 mph 1016.2mb - 50f
3:00pm 1.3ft 2s 13 16 mph 1016.2mb 51f 50f
2:50pm  -   -  13 16 mph 1015.9mb - 50f
2:40pm  -   -  13 16 mph 1015.8mb - 50f
2:30pm  -   -  13 16 mph 1015.7mb - 50f
2:20pm  -   -  13 18 mph 1015.7mb - 50f
2:10pm  -   -  16 18 mph 1015.7mb - 50f
2:00pm 1.6ft 2s 16 18 mph 1015.8mb 51f 50f
1:50pm  -   -  16 20 mph 1015.8mb - 49f
1:40pm  -   -  16 20 mph 1015.6mb - 49f
1:30pm  -   -  16 18 mph 1015.7mb - 49f
1:20pm  -   -  9 16 mph 1015.6mb - 50f
1:10pm  -   -  9 13 mph 1015.6mb - 50f
1:00pm 1ft 2s 11 16 mph 1015.6mb 51f 50f
12:50pm  -   -  11 16 mph 1015.6mb - 49f
12:40pm  -   -  11 16 mph 1015.6mb - 49f
12:30pm  -   -  13 16 mph 1015.7mb - 49f
12:20pm  -   -  13 20 mph 1015.7mb - 49f
12:10pm  -   -  13 16 mph 1015.8mb - 49f
12:00pm 1ft 2s 16 18 mph 1015.8mb 51f 49f
11:50am  -   -  11 16 mph 1015.8mb - 49f
11:40am  -   -  13 16 mph 1015.7mb - 49f
11:30am  -   -  13 18 mph 1015.8mb - 49f
11:20am  -   -  16 20 mph 1015.8mb - 49f
11:10am  -   -  16 20 mph 1015.9mb - 49f
11:00am 1ft 2s 16 20 mph 1016mb 51f 50f
10:50am  -   -  13 18 mph 1016mb - 50f
10:40am  -   -  11 16 mph 1016mb - 50f
10:30am  -   -  11 13 mph 1016mb - 49f
10:20am  -   -  11 13 mph 1016.3mb - 48f
10:10am  -   -  9 11 mph 1016.3mb - 47f
10:00am 1ft 2s 11 13 mph 1016.4mb 50f 47f
9:50am  -   -  13
mph
1016.3mb - 46f
9:40am  -   -  13 16 mph 1016mb - 46f
9:30am  -   -  13 16 mph 1016mb - 46f
9:20am  -   -  13 16 mph 1016mb - 46f
9:10am  -   -  11 16 mph 1015.9mb - 46f
9:00am 1ft 2s 11 16 mph 1015.7mb 50f 46f
8:50am  -   -  13 16 mph 1015.5mb - 46f
8:40am  -   -  13 16 mph 1015.5mb - 46f
8:30am  -   -  13 16 mph 1015.2mb - 46f
8:20am  -   -  11 13 mph 1015mb - 46f
8:10am  -   -  11 13 mph 1014.6mb - 45f
8:00am 1ft 2s 11 13 mph 1014.5mb 50f 45f
7:50am  -   -  11 16 mph 1014.4mb - 45f
7:40am  -   -  13 16 mph 1014.5mb - 45f
7:30am  -   -  13 18 mph 1014.4mb - 45f
7:20am  -   -  13 16 mph 1014.2mb - 45f
7:10am  -   -  16 20 mph 1014mb - 45f
7:00am 1ft 2s 13 16 mph 1013.8mb 49f 45f
6:50am  -   -  13 18 mph 1013.6mb - 45f
6:40am  -   -  13 18 mph 1013.5mb - 46f
6:30am  -   -  13 18 mph 1013.5mb - 45f
6:20am  -   -  13 16 mph 1013mb - 45f
6:10am  -   -  11 13 mph 1012.6mb - 45f
6:00am 1ft 2s 11 16 mph 1012.4mb 49f 45f
5:50am  -   -  11 16 mph 1012.3mb - 45f
5:40am  -   -  11 13 mph 1012.2mb - 46f
5:30am  -   -  13 16 mph 1012.3mb - 46f
5:20am  -   -  16 18 mph 1012.2mb - 46f
5:10am  -   -  13 20 mph 1012.1mb - 46f
5:00am 1ft 2s 16 18 mph 1012.1mb 51f 46f
4:50am  -   -  16 18 mph 1011.9mb - 46f
4:40am  -   -  16 20 mph 1011.9mb - 46f
4:30am  -   -  13 16 mph 1011.4mb - 46f